createdAt,value
2018-10-07T00:01:25.506Z,6.97
2018-10-07T00:06:27.686Z,6.73
2018-10-07T00:11:29.850Z,6.77
2018-10-07T00:16:31.998Z,7.10
2018-10-07T00:21:34.157Z,7.20
2018-10-07T00:26:36.293Z,7.20
2018-10-07T00:31:44.246Z,6.43
2018-10-07T00:36:46.402Z,6.70
2018-10-07T00:41:48.525Z,7.43
2018-10-07T00:46:50.689Z,6.60
2018-10-07T00:51:52.957Z,7.03
2018-10-07T00:56:55.100Z,7.20
2018-10-07T01:01:57.263Z,7.20
2018-10-07T01:06:59.470Z,6.67
2018-10-07T01:12:01.629Z,7.00
2018-10-07T01:17:03.766Z,7.53
2018-10-07T01:22:05.923Z,7.30
2018-10-07T01:27:08.135Z,6.90
2018-10-07T01:32:10.266Z,6.80
2018-10-07T01:37:12.416Z,6.80
2018-10-07T01:42:14.570Z,6.60
2018-10-07T01:47:16.734Z,7.17
2018-10-07T01:52:18.886Z,6.93
2018-10-07T01:57:21.041Z,6.87
2018-10-07T02:02:23.287Z,6.93
2018-10-07T02:07:25.406Z,6.63
2018-10-07T02:12:27.545Z,7.00
2018-10-07T02:17:29.687Z,7.40
2018-10-07T02:22:31.881Z,7.50
2018-10-07T02:27:34.022Z,8.10
2018-10-07T02:32:36.190Z,8.50
2018-10-07T02:37:38.360Z,7.53
2018-10-07T02:42:40.502Z,7.70
2018-10-07T02:47:42.678Z,8.07
2018-10-07T02:52:49.270Z,7.27
2018-10-07T02:57:52.605Z,7.43
2018-10-07T03:02:54.810Z,7.67
2018-10-07T03:07:57.007Z,8.33
2018-10-07T03:12:59.190Z,9.00
2018-10-07T03:18:01.395Z,8.33
2018-10-07T03:23:03.566Z,7.53
2018-10-07T03:28:05.770Z,7.63
2018-10-07T03:33:07.951Z,7.40
2018-10-07T03:38:10.134Z,8.83
2018-10-07T03:43:12.339Z,8.93
2018-10-07T03:48:14.494Z,7.90
2018-10-07T03:53:16.702Z,8.50
2018-10-07T03:58:18.895Z,8.37
2018-10-07T04:03:21.313Z,8.37
2018-10-07T04:08:23.482Z,8.37
2018-10-07T04:13:25.680Z,9.10
2018-10-07T04:18:27.917Z,11.20
2018-10-07T04:23:30.181Z,9.90
2018-10-07T04:28:32.398Z,11.90
2018-10-07T04:33:34.578Z,12.10
2018-10-07T04:38:37.269Z,14.10
2018-10-07T04:43:39.493Z,13.00
2018-10-07T04:48:41.715Z,14.40
2018-10-07T04:53:43.903Z,13.33
2018-10-07T04:58:46.106Z,15.00
2018-10-07T05:03:48.462Z,16.10
2018-10-07T05:08:51.034Z,15.77
2018-10-07T05:13:54.466Z,17.03
2018-10-07T05:18:57.179Z,18.97
2018-10-07T05:23:59.667Z,21.00
2018-10-07T05:29:01.930Z,25.07
2018-10-07T05:34:04.150Z,23.30
2018-10-07T05:39:08.097Z,23.13
2018-10-07T05:44:10.294Z,20.40
2018-10-07T05:49:12.450Z,23.27
2018-10-07T05:54:14.699Z,21.70
2018-10-07T05:59:16.963Z,20.10
2018-10-07T06:04:22.222Z,17.67
2018-10-07T06:09:26.987Z,17.00
2018-10-07T06:14:40.918Z,15.00
2018-10-07T06:19:43.102Z,13.70
2018-10-07T06:24:58.477Z,13.03
2018-10-07T06:30:12.745Z,12.17
2018-10-07T06:35:32.427Z,12.70
2018-10-07T06:40:47.118Z,11.77
2018-10-07T06:46:04.718Z,11.57
2018-10-07T10:09:46.682Z,18.10
2018-10-07T10:14:55.022Z,19.40
2018-10-07T10:25:54.342Z,21.63
